Jimmy Lake, Canada
Current Conditions -  °F | °C
As of 11:14 AM on Friday 31 Oct 2014 (Local Time) from CWHN Reporting Station
Overcast Overcast  
Wind Chill: -4°   Ceiling: 1000
Heat Index:   Visibility: 9mi
Dew Point:   Wind: 17mph
Humidity: 87%   Direction: 170°S
Pressure: 29.69"   Gusts: NA
Location:  54.9°N, 109.97°W
Report Text: CWHN 311714Z AUTO 17015KT 9SM OVC010 OVC080 02/00 A2969
Loading
Personal Weather Stations






























Interactive Weather Map
Tropical Storm Tracking
New forecast layout! Learn more

10-Day Weather Forecast

Advertisements
Track Severe Weather on mobile